createdAt,value
2022-10-03T00:01:29.150Z,6.93
2022-10-03T00:04:11.930Z,7.95
2022-10-03T00:06:53.072Z,7.90
2022-10-03T00:09:35.322Z,6.20
2022-10-03T00:12:20.920Z,7.05
2022-10-03T00:15:02.938Z,8.15
2022-10-03T00:17:49.441Z,6.63
2022-10-03T00:20:45.841Z,7.70
2022-10-03T00:23:22.616Z,8.23
2022-10-03T00:26:23.231Z,7.53
2022-10-03T00:29:04.837Z,7.40
2022-10-03T00:31:47.406Z,7.72
2022-10-03T00:34:29.323Z,8.15
2022-10-03T00:37:16.774Z,8.03
2022-10-03T00:40:11.599Z,7.78
2022-10-03T00:43:09.912Z,7.97
2022-10-03T00:45:56.732Z,7.68
2022-10-03T00:49:04.751Z,7.35
2022-10-03T00:51:49.634Z,7.38
2022-10-03T00:54:47.569Z,7.70
2022-10-03T00:57:40.553Z,8.40
2022-10-03T01:00:21.457Z,8.30
2022-10-03T01:03:24.664Z,7.88
2022-10-03T01:06:09.186Z,9.10
2022-10-03T01:09:07.469Z,7.78
2022-10-03T01:11:56.565Z,8.57
2022-10-03T01:14:48.131Z,7.50
2022-10-03T01:17:28.436Z,8.07
2022-10-03T01:20:14.681Z,8.25
2022-10-03T01:23:07.196Z,8.30
2022-10-03T01:25:48.083Z,8.13
2022-10-03T01:28:59.865Z,8.50
2022-10-03T01:31:37.419Z,8.80
2022-10-03T01:34:13.766Z,7.65
2022-10-03T01:36:54.489Z,9.00
2022-10-03T01:39:30.085Z,8.05
2022-10-03T01:42:04.423Z,7.65
2022-10-03T01:44:53.389Z,8.55
2022-10-03T01:47:26.660Z,9.32
2022-10-03T01:50:04.283Z,8.80
2022-10-03T01:52:44.574Z,8.93
2022-10-03T01:55:21.718Z,9.95
2022-10-03T01:58:01.845Z,8.38
2022-10-03T02:00:43.439Z,9.60
2022-10-03T02:03:22.323Z,10.35
2022-10-03T02:06:03.012Z,8.75
2022-10-03T02:08:47.914Z,9.90
2022-10-03T02:11:33.876Z,8.30
2022-10-03T02:14:24.250Z,9.10
2022-10-03T02:17:02.551Z,8.55
2022-10-03T02:19:38.153Z,9.32
2022-10-03T02:22:17.509Z,9.68
2022-10-03T02:24:55.277Z,10.02
2022-10-03T02:27:51.505Z,9.65
2022-10-03T02:30:24.221Z,10.10
2022-10-03T02:36:07.597Z,10.48
2022-10-03T02:39:18.880Z,10.52
2022-10-03T02:42:19.602Z,10.25
2022-10-03T02:45:09.628Z,11.48
2022-10-03T02:48:27.482Z,10.55
2022-10-03T02:51:34.410Z,10.77
2022-10-03T02:54:51.909Z,10.90
2022-10-03T02:58:00.966Z,11.18
2022-10-03T03:00:49.306Z,11.50
2022-10-03T03:03:35.798Z,11.40
2022-10-03T03:06:32.411Z,11.35
2022-10-03T03:09:38.367Z,11.32
2022-10-03T03:12:27.508Z,10.45
2022-10-03T03:15:29.233Z,10.60
2022-10-03T03:18:07.632Z,11.68
2022-10-03T03:20:57.907Z,11.60
2022-10-03T03:23:54.576Z,10.98
2022-10-03T03:26:38.064Z,11.10
2022-10-03T03:29:14.418Z,11.43
2022-10-03T03:31:50.176Z,12.52
2022-10-03T03:34:28.125Z,12.02
2022-10-03T03:37:02.839Z,11.55
2022-10-03T03:39:47.725Z,12.30
2022-10-03T03:42:40.184Z,12.20
2022-10-03T03:45:29.496Z,12.60
2022-10-03T03:48:12.430Z,10.85
2022-10-03T03:53:47.201Z,11.02
2022-10-03T03:56:40.879Z,11.40
2022-10-03T03:59:24.424Z,10.65
2022-10-03T04:02:09.258Z,10.80
2022-10-03T04:05:03.514Z,10.90
2022-10-03T04:07:49.996Z,11.27
2022-10-03T04:10:29.707Z,11.30
2022-10-03T04:13:23.706Z,11.38
2022-10-03T04:16:43.054Z,10.90
2022-10-03T04:19:19.124Z,10.52
2022-10-03T04:22:12.413Z,13.88
2022-10-03T04:25:05.527Z,14.35
2022-10-03T04:30:15.689Z,11.73
2022-10-03T04:32:57.267Z,11.73
2022-10-03T04:36:21.696Z,12.57
2022-10-03T04:39:00.817Z,11.45
2022-10-03T04:41:42.883Z,11.60
2022-10-03T04:44:33.915Z,11.43
2022-10-03T04:47:11.009Z,12.43
2022-10-03T04:49:43.242Z,12.68
2022-10-03T04:52:20.201Z,13.70
2022-10-03T04:54:55.981Z,13.68
2022-10-03T04:57:32.651Z,13.18
2022-10-03T05:00:17.376Z,12.18
2022-10-03T05:02:55.791Z,11.35
2022-10-03T05:05:42.824Z,11.02
2022-10-03T05:08:20.649Z,11.38
2022-10-03T05:10:58.044Z,13.13
2022-10-03T05:13:39.383Z,12.00
2022-10-03T05:16:19.361Z,9.55
2022-10-03T05:18:54.854Z,12.43
2022-10-03T05:21:35.267Z,13.15
2022-10-03T05:24:17.938Z,12.23
2022-10-03T05:26:53.555Z,12.23
2022-10-03T05:29:29.345Z,12.65
2022-10-03T05:32:14.532Z,12.13
2022-10-03T05:35:04.221Z,11.95
2022-10-03T05:37:53.891Z,12.40
2022-10-03T05:40:25.607Z,11.10
2022-10-03T05:43:08.305Z,12.87
2022-10-03T05:45:49.697Z,12.45
2022-10-03T05:48:31.792Z,11.55
2022-10-03T05:51:17.427Z,13.63
2022-10-03T05:54:23.544Z,12.90
2022-10-03T05:57:25.744Z,14.48
2022-10-03T06:00:07.437Z,12.60
2022-10-03T06:02:54.042Z,13.10
2022-10-03T06:05:47.354Z,13.07
2022-10-03T06:08:50.416Z,12.25
2022-10-03T06:11:46.811Z,12.63
2022-10-03T06:14:35.220Z,11.93
2022-10-03T06:17:29.402Z,12.48
2022-10-03T06:20:14.256Z,11.52
2022-10-03T06:23:21.623Z,10.63
2022-10-03T06:26:16.151Z,9.80
2022-10-03T06:29:25.002Z,9.90
2022-10-03T06:32:26.695Z,10.75
2022-10-03T06:35:27.101Z,11.70
2022-10-03T06:38:37.857Z,10.50
2022-10-03T06:41:30.325Z,10.90
2022-10-03T06:44:16.610Z,9.93
2022-10-03T06:47:27.020Z,10.45
2022-10-03T06:50:35.591Z,10.52
2022-10-03T06:53:19.386Z,11.18
2022-10-03T06:56:16.348Z,11.27
2022-10-03T06:59:09.351Z,9.35
2022-10-03T07:02:10.673Z,9.15
2022-10-03T07:05:10.957Z,9.40
2022-10-03T07:08:15.691Z,9.38
2022-10-03T07:10:57.096Z,8.63
2022-10-03T07:13:55.108Z,8.30
2022-10-03T07:17:11.355Z,9.80
2022-10-03T07:19:58.493Z,8.75
2022-10-03T07:23:06.351Z,9.27
2022-10-03T07:26:17.852Z,9.48
2022-10-03T07:29:09.456Z,8.70
2022-10-03T07:31:52.128Z,8.15
2022-10-03T07:34:43.975Z,8.45
2022-10-03T07:37:48.118Z,7.90
2022-10-03T07:40:45.757Z,8.45
2022-10-03T07:43:46.916Z,7.72
2022-10-03T07:46:39.450Z,8.18
2022-10-03T07:49:24.522Z,7.63
2022-10-03T07:52:15.610Z,6.53
2022-10-03T07:55:11.325Z,6.45
2022-10-03T07:58:05.835Z,5.80
2022-10-03T08:00:52.538Z,6.28
2022-10-03T08:04:02.635Z,5.90
2022-10-03T08:06:38.955Z,5.72
2022-10-03T08:09:36.898Z,5.80
2022-10-03T08:12:26.533Z,4.88
2022-10-03T08:15:04.652Z,4.53
2022-10-03T08:18:16.110Z,4.00
2022-10-03T08:20:54.448Z,2.90
2022-10-03T08:24:05.343Z,3.25
2022-10-03T08:26:46.388Z,3.35
2022-10-03T08:29:53.158Z,3.92
2022-10-03T08:32:49.886Z,3.50
2022-10-03T08:35:35.197Z,4.05
2022-10-03T08:38:28.216Z,3.58
2022-10-03T08:41:27.001Z,3.40
2022-10-03T08:44:25.957Z,3.28
2022-10-03T08:47:20.964Z,3.22
2022-10-03T08:50:38.251Z,3.33
2022-10-03T08:53:40.698Z,2.92
2022-10-03T08:56:14.674Z,2.45
2022-10-03T08:59:07.816Z,2.83
2022-10-03T09:01:57.889Z,3.53
2022-10-03T09:05:19.671Z,2.92
2022-10-03T09:08:23.123Z,2.78
2022-10-03T09:11:14.816Z,3.20
2022-10-03T09:14:16.161Z,2.83
2022-10-03T09:17:00.009Z,3.35
2022-10-03T09:19:57.777Z,2.45
2022-10-03T09:22:51.224Z,2.10
2022-10-03T09:25:39.316Z,2.03
2022-10-03T09:28:30.640Z,2.10
2022-10-03T09:31:15.072Z,2.25
2022-10-03T09:34:27.006Z,2.28
2022-10-03T09:37:42.077Z,2.63
2022-10-03T09:40:40.362Z,2.03
2022-10-03T09:43:58.243Z,2.58
2022-10-03T09:47:07.616Z,2.15
2022-10-03T09:50:20.228Z,2.63
2022-10-03T09:53:28.357Z,2.67
2022-10-03T09:56:30.337Z,3.10
2022-10-03T09:59:31.190Z,2.20
2022-10-03T10:06:24.857Z,2.10
2022-10-03T11:03:26.740Z,1.80
2022-10-03T11:06:46.103Z,1.48
2022-10-03T11:13:17.994Z,1.90
2022-10-03T11:16:26.661Z,1.85
2022-10-03T11:19:44.705Z,1.40
2022-10-03T11:23:07.386Z,1.58
2022-10-03T11:29:32.387Z,1.48
2022-10-03T11:32:36.902Z,1.90
2022-10-03T11:35:38.575Z,1.92
2022-10-03T11:38:17.009Z,1.45
2022-10-03T11:40:58.020Z,1.27
2022-10-03T11:43:51.690Z,1.20
2022-10-03T11:46:38.345Z,1.70
2022-10-03T11:49:24.729Z,1.75
2022-10-03T11:52:04.165Z,2.20
2022-10-03T11:54:37.475Z,1.60
2022-10-03T11:57:10.261Z,1.63
2022-10-03T11:59:54.629Z,1.60
2022-10-03T12:02:44.745Z,1.42
2022-10-03T12:05:22.432Z,1.80
2022-10-03T12:08:21.456Z,1.73
2022-10-03T12:11:06.330Z,1.40
2022-10-03T12:13:41.708Z,1.50
2022-10-03T12:16:38.256Z,1.05
2022-10-03T12:19:35.679Z,1.20
2022-10-03T12:22:24.029Z,1.20
2022-10-03T12:24:56.104Z,1.92
2022-10-03T12:27:44.821Z,1.30
2022-10-03T12:30:16.571Z,1.10
2022-10-03T12:32:58.786Z,1.55
2022-10-03T12:35:40.510Z,1.40
2022-10-03T12:38:33.773Z,1.40
2022-10-03T12:41:17.183Z,1.40
2022-10-03T12:44:04.990Z,1.30
2022-10-03T12:46:43.185Z,1.52
2022-10-03T12:49:16.904Z,1.10
2022-10-03T12:51:55.119Z,1.50
2022-10-03T12:54:38.771Z,1.60
2022-10-03T12:57:40.209Z,1.60
2022-10-03T13:00:20.825Z,1.30
2022-10-03T13:03:02.778Z,1.13
2022-10-03T13:05:55.613Z,1.48
2022-10-03T13:08:43.349Z,1.17
2022-10-03T13:11:28.046Z,1.10
2022-10-03T13:14:08.466Z,0.85
2022-10-03T13:16:46.672Z,1.30
2022-10-03T13:19:19.076Z,1.27
2022-10-03T13:24:33.029Z,0.63
2022-10-03T13:27:14.166Z,1.23
2022-10-03T13:29:44.929Z,1.30
2022-10-03T13:32:32.253Z,1.10
2022-10-03T13:35:29.526Z,1.33
2022-10-03T13:38:37.038Z,0.68
2022-10-03T13:41:15.010Z,1.20
2022-10-03T13:43:56.035Z,0.98
2022-10-03T13:46:31.267Z,1.30
2022-10-03T13:49:10.743Z,0.80
2022-10-03T13:51:47.537Z,1.17
2022-10-03T13:54:24.181Z,1.25
2022-10-03T13:56:57.832Z,1.20
2022-10-03T13:59:37.792Z,1.20
2022-10-03T14:02:36.788Z,2.08
2022-10-03T14:05:33.827Z,1.48
2022-10-03T14:08:10.792Z,1.55
2022-10-03T14:11:06.164Z,1.20
2022-10-03T14:13:46.143Z,1.02
2022-10-03T14:16:20.403Z,1.50
2022-10-03T14:18:55.460Z,1.55
2022-10-03T14:21:42.017Z,1.27
2022-10-03T14:24:26.372Z,1.45
2022-10-03T14:27:00.978Z,1.45
2022-10-03T14:29:37.596Z,1.20
2022-10-03T14:32:42.595Z,1.48
2022-10-03T14:35:13.686Z,1.00
2022-10-03T14:37:47.701Z,1.60
2022-10-03T14:40:20.066Z,1.50
2022-10-03T14:45:26.890Z,1.40
2022-10-03T14:48:00.480Z,1.02
2022-10-03T14:50:32.007Z,1.30
2022-10-03T14:53:06.818Z,1.83
2022-10-03T14:55:41.206Z,1.60
2022-10-03T14:58:18.782Z,1.63
2022-10-03T15:00:49.523Z,1.65
2022-10-03T15:03:30.551Z,1.55
2022-10-03T15:06:21.176Z,1.25
2022-10-03T15:08:54.506Z,1.25
2022-10-03T15:11:27.954Z,1.65
2022-10-03T15:14:02.498Z,1.90
2022-10-03T15:16:35.871Z,2.20
2022-10-03T15:19:09.870Z,1.80
2022-10-03T15:21:39.300Z,1.60
2022-10-03T15:54:26.266Z,1.48
2022-10-03T15:57:11.671Z,1.60
2022-10-03T16:02:36.129Z,1.85
2022-10-03T16:05:08.610Z,1.85
2022-10-03T16:10:21.246Z,2.00
2022-10-03T16:13:01.019Z,1.85
2022-10-03T16:15:49.162Z,1.90
2022-10-03T16:18:45.777Z,2.10
2022-10-03T16:21:21.473Z,2.00
2022-10-03T16:23:55.396Z,1.70
2022-10-03T16:26:29.049Z,2.20
2022-10-03T16:29:12.174Z,2.08
2022-10-03T16:31:45.803Z,1.70
2022-10-03T16:34:17.344Z,1.77
2022-10-03T16:36:48.786Z,1.35
2022-10-03T16:39:25.354Z,2.13
2022-10-03T16:41:56.693Z,2.03
2022-10-03T16:44:29.590Z,2.25
2022-10-03T16:47:02.691Z,2.33
2022-10-03T16:49:56.816Z,3.47
2022-10-03T16:52:32.269Z,3.88
2022-10-03T16:55:05.635Z,3.90
2022-10-03T16:57:45.911Z,3.13
2022-10-03T17:00:20.568Z,3.67
2022-10-03T17:02:49.851Z,4.18
2022-10-03T17:05:20.707Z,3.80
2022-10-03T17:07:52.883Z,3.72
2022-10-03T17:10:36.384Z,4.45
2022-10-03T17:13:13.613Z,3.28
2022-10-03T17:15:50.152Z,2.90
2022-10-03T17:18:25.720Z,2.47
2022-10-03T17:21:07.856Z,2.42
2022-10-03T17:23:41.095Z,2.75
2022-10-03T17:26:14.643Z,2.63
2022-10-03T17:28:52.612Z,2.35
2022-10-03T17:31:30.158Z,2.45
2022-10-03T17:34:06.459Z,1.73
2022-10-03T17:36:54.577Z,1.75
2022-10-03T17:39:36.553Z,2.08
2022-10-03T17:42:10.207Z,1.63
2022-10-03T17:44:47.725Z,2.20
2022-10-03T17:47:21.031Z,2.60
2022-10-03T17:49:57.324Z,3.88
2022-10-03T17:52:26.797Z,4.10
2022-10-03T17:54:58.372Z,3.47
2022-10-03T17:57:28.917Z,3.47
2022-10-03T18:00:02.586Z,3.25
2022-10-03T18:02:41.305Z,3.42
2022-10-03T18:05:14.887Z,2.65
2022-10-03T18:07:44.185Z,2.65
2022-10-03T18:10:22.443Z,2.85
2022-10-03T18:12:54.818Z,2.00
2022-10-03T18:15:40.837Z,2.40
2022-10-03T18:18:50.314Z,2.50
2022-10-03T18:21:28.347Z,2.30
2022-10-03T18:24:14.121Z,2.67
2022-10-03T18:26:44.542Z,3.63
2022-10-03T18:29:23.620Z,2.15
2022-10-03T18:31:57.639Z,2.35
2022-10-03T18:34:34.466Z,2.33
2022-10-03T18:37:17.795Z,2.70
2022-10-03T18:39:51.195Z,2.70
2022-10-03T18:42:28.078Z,2.92
2022-10-03T18:44:57.902Z,2.70
2022-10-03T18:47:33.117Z,2.30
2022-10-03T18:50:10.104Z,3.13
2022-10-03T18:52:43.746Z,3.90
2022-10-03T18:55:19.355Z,3.90
2022-10-03T18:57:55.887Z,2.92
2022-10-03T19:00:28.465Z,2.60
2022-10-03T19:03:00.152Z,4.50
2022-10-03T19:05:33.504Z,3.45
2022-10-03T19:08:10.190Z,3.72
2022-10-03T19:10:45.914Z,3.33
2022-10-03T19:13:21.876Z,3.67
2022-10-03T19:16:16.686Z,3.70
2022-10-03T19:19:03.032Z,3.25
2022-10-03T19:21:36.519Z,3.00
2022-10-03T19:24:12.104Z,3.47
2022-10-03T19:26:44.911Z,3.65
2022-10-03T19:29:15.805Z,3.70
2022-10-03T19:31:52.633Z,3.35
2022-10-03T19:34:25.583Z,3.67
2022-10-03T19:36:55.779Z,3.85
2022-10-03T19:39:23.949Z,4.18
2022-10-03T19:41:56.169Z,4.13
2022-10-03T19:44:26.624Z,4.22
2022-10-03T19:47:06.153Z,4.22
2022-10-03T19:49:44.960Z,5.03
2022-10-03T19:52:28.696Z,4.90
2022-10-03T19:55:02.257Z,5.63
2022-10-03T19:57:40.103Z,4.60
2022-10-03T20:00:21.270Z,4.22
2022-10-03T20:02:55.013Z,5.18
2022-10-03T20:05:30.323Z,3.75
2022-10-03T20:08:03.335Z,4.07
2022-10-03T20:10:46.657Z,3.50
2022-10-03T20:13:15.242Z,3.40
2022-10-03T20:15:45.276Z,3.30
2022-10-03T20:18:20.929Z,3.35
2022-10-03T20:20:53.618Z,3.80
2022-10-03T20:25:55.704Z,3.42
2022-10-03T20:28:30.396Z,3.78
2022-10-03T20:30:58.046Z,3.42
2022-10-03T20:33:29.280Z,3.78
2022-10-03T20:36:03.123Z,3.75
2022-10-03T20:38:46.138Z,3.50
2022-10-03T20:41:18.938Z,3.60
2022-10-03T20:43:54.514Z,3.65
2022-10-03T20:46:25.857Z,3.40
2022-10-03T20:49:19.055Z,3.83
2022-10-03T20:54:26.471Z,3.47
2022-10-03T20:56:58.485Z,3.85
2022-10-03T20:59:38.619Z,4.32
2022-10-03T21:02:18.137Z,3.45
2022-10-03T21:04:53.726Z,4.18
2022-10-03T21:07:35.699Z,2.95
2022-10-03T21:10:11.196Z,3.00
2022-10-03T21:12:45.763Z,3.00
2022-10-03T21:15:20.807Z,2.97
2022-10-03T21:17:50.644Z,3.88
2022-10-03T21:20:23.483Z,3.33
2022-10-03T21:22:56.160Z,3.70
2022-10-03T23:06:39.961Z,2.53
